PWSweather.com
Personal Weather Stations
Station Observations
EA5BZ
Nuevo Altabix, ElcheES

Nuevo AltabixElcheES

Lat: 38.276, Lon: -0.671

Elevation: 0

Station Type: Davis Vantage Pro 2

http://meteoelche.es

High Low Average
Temperature 60.5°F15.8°C 52.3°F11.3°C 55.6°F13.1°C
Dew Point 41.3°F5.2°C 35.2°F1.8°C 38.2°F3.4°C
Winds 33.8 mph 54.4 kmh 6.3 mph 10.1 kmh 21.0 mph W33.8 kmh W
Wind Gusts 80.8 mph130.0 kmh 8.7 mph14.0 kmh 34.0 mph54.7 kmh
Humidity 64% 46% 52%
Pressure 30.21 in1023.0 mb 29.73 in1006.8 mb -
Precipitation 0.00 in0.0 mm - -
Hour Temp Dew Point Humidity Winds Wind Gusts Pressure Precip Precip Rate Daily Precip Total
12:00 AM 53.1°F11.7°C 41.3°F5.2°C 64% 23.5 mph WNW37.8 kmh WNW 39.1 mph62.9 kmh 29.73 in1006.8 mb 0.02 in0.5 mm 0.00 in0.0 mm 0.02 in0.5 mm
12:05 AM 53.2°F11.8°C 41.3°F5.2°C 64% 23.5 mph WNW37.8 kmh WNW 34.4 mph55.4 kmh 29.73 in1006.8 mb 0.02 in0.5 mm 0.00 in0.0 mm 0.02 in0.5 mm
12:10 AM 53.2°F11.8°C 41.0°F5.0°C 63% 23.7 mph W38.1 kmh W 42.3 mph68.1 kmh 29.73 in1006.8 mb 0.01 in0.3 mm 0.00 in0.0 mm 0.02 in0.5 mm
12:15 AM 53.3°F11.8°C 40.7°F4.8°C 62% 23.7 mph W38.1 kmh W 40.9 mph65.8 kmh 29.74 in1007.1 mb 0.01 in0.3 mm 0.00 in0.0 mm 0.02 in0.5 mm
12:20 AM 53.4°F11.9°C 40.4°F4.7°C 61% 23.7 mph W38.1 kmh W 44.5 mph71.6 kmh 29.74 in1007.1 mb 0.01 in0.3 mm 0.00 in0.0 mm 0.02 in0.5 mm
12:25 AM 53.6°F12.0°C 40.4°F4.7°C 61% 24.4 mph W39.3 kmh W 42.9 mph69.0 kmh 29.73 in1006.8 mb 0.01 in0.3 mm 0.00 in0.0 mm 0.02 in0.5 mm
12:30 AM 53.7°F12.1°C 40.1°F4.5°C 60% 26.2 mph W42.2 kmh W 44.5 mph71.6 kmh 29.73 in1006.8 mb 0.01 in0.3 mm 0.00 in0.0 mm 0.02 in0.5 mm
12:35 AM 53.8°F12.1°C 40.0°F4.4°C 59% 26.2 mph W42.2 kmh W 41.6 mph66.9 kmh 29.73 in1006.8 mb 0.01 in0.3 mm 0.00 in0.0 mm 0.02 in0.5 mm
12:40 AM 53.8°F12.1°C 39.8°F4.3°C 59% 26.2 mph W42.2 kmh W 44.1 mph71.0 kmh 29.74 in1007.1 mb 0.01 in0.3 mm 0.00 in0.0 mm 0.02 in0.5 mm
12:45 AM 53.8°F12.1°C 39.7°F4.3°C 59% 25.7 mph W41.4 kmh W 47.2 mph76.0 kmh 29.74 in1007.1 mb 0.00 in0.0 mm 0.00 in0.0 mm 0.02 in0.5 mm
12:50 AM 53.8°F12.1°C 39.4°F4.1°C 58% 24.6 mph W39.6 kmh W 42.3 mph68.1 kmh 29.74 in1007.1 mb 0.00 in0.0 mm 0.00 in0.0 mm 0.02 in0.5 mm
12:55 AM 54.0°F12.2°C 39.5°F4.2°C 58% 25.0 mph W40.2 kmh W 38.0 mph61.2 kmh 29.76 in1007.8 mb 0.00 in0.0 mm 0.00 in0.0 mm 0.02 in0.5 mm
01:00 AM 54.0°F12.2°C 39.2°F4.0°C 57% 26.2 mph W42.2 kmh W 44.1 mph71.0 kmh 29.76 in1007.8 mb 0.00 in0.0 mm 0.00 in0.0 mm 0.02 in0.5 mm
01:05 AM 54.0°F12.2°C 39.1°F3.9°C 57% 26.7 mph W43.0 kmh W 42.7 mph68.7 kmh 29.76 in1007.8 mb 0.00 in0.0 mm 0.00 in0.0 mm 0.02 in0.5 mm
01:10 AM 54.0°F12.2°C 39.1°F3.9°C 57% 28.0 mph W45.1 kmh W 41.6 mph66.9 kmh 29.77 in1008.1 mb 0.00 in0.0 mm 0.00 in0.0 mm 0.02 in0.5 mm
01:15 AM 54.0°F12.2°C 39.1°F3.9°C 57% 27.7 mph W44.6 kmh W 35.6 mph57.3 kmh 29.77 in1008.1 mb 0.00 in0.0 mm 0.00 in0.0 mm 0.02 in0.5 mm
01:20 AM 54.0°F12.2°C 39.1°F3.9°C 57% 26.8 mph W43.1 kmh W 37.4 mph60.2 kmh 29.77 in1008.1 mb 0.00 in0.0 mm 0.00 in0.0 mm 0.02 in0.5 mm
01:25 AM 54.0°F12.2°C 38.9°F3.8°C 57% 25.3 mph W40.7 kmh W 39.4 mph63.4 kmh 29.78 in1008.5 mb 0.00 in0.0 mm 0.00 in0.0 mm 0.02 in0.5 mm
01:30 AM 54.0°F12.2°C 38.8°F3.8°C 56% 21.3 mph W34.3 kmh W 39.1 mph62.9 kmh 29.78 in1008.5 mb 0.00 in0.0 mm 0.00 in0.0 mm 0.02 in0.5 mm
01:35 AM 54.0°F12.2°C 38.6°F3.7°C 56% 21.7 mph W34.9 kmh W 39.8 mph64.1 kmh 29.78 in1008.5 mb 0.00 in0.0 mm 0.00 in0.0 mm 0.02 in0.5 mm
01:40 AM 53.9°F12.2°C 38.6°F3.7°C 56% 23.0 mph WSW37.0 kmh WSW 44.7 mph71.9 kmh 29.79 in1008.8 mb 0.00 in0.0 mm 0.00 in0.0 mm 0.02 in0.5 mm
01:45 AM 54.0°F12.2°C 38.4°F3.6°C 56% 23.9 mph WSW38.5 kmh WSW 45.9 mph73.9 kmh 29.79 in1008.8 mb 0.00 in0.0 mm 0.00 in0.0 mm 0.02 in0.5 mm
01:50 AM 54.0°F12.2°C 38.2°F3.4°C 55% 26.2 mph WSW42.2 kmh WSW 42.7 mph68.7 kmh 29.79 in1008.8 mb 0.00 in0.0 mm 0.00 in0.0 mm 0.02 in0.5 mm
01:55 AM 54.0°F12.2°C 38.2°F3.4°C 55% 26.2 mph WSW42.2 kmh WSW 48.5 mph78.1 kmh 29.79 in1008.8 mb 0.00 in0.0 mm 0.00 in0.0 mm 0.02 in0.5 mm
02:00 AM 54.1°F12.3°C 38.2°F3.4°C 55% 26.2 mph W42.2 kmh W 42.7 mph68.7 kmh 29.79 in1008.8 mb 0.00 in0.0 mm 0.00 in0.0 mm 0.02 in0.5 mm
02:05 AM 54.0°F12.2°C 38.2°F3.4°C 55% 25.9 mph W41.7 kmh W 38.7 mph62.3 kmh 29.79 in1008.8 mb 0.00 in0.0 mm 0.00 in0.0 mm 0.02 in0.5 mm
02:10 AM 53.8°F12.1°C 38.0°F3.3°C 55% 25.3 mph WSW40.7 kmh WSW 46.5 mph74.8 kmh 29.79 in1008.8 mb 0.00 in0.0 mm 0.00 in0.0 mm 0.02 in0.5 mm
02:15 AM 53.9°F12.2°C 37.9°F3.3°C 55% 25.4 mph W40.9 kmh W 45.2 mph72.7 kmh 29.79 in1008.8 mb 0.00 in0.0 mm 0.00 in0.0 mm 0.02 in0.5 mm
02:20 AM 54.0°F12.2°C 37.8°F3.2°C 54% 25.7 mph W41.4 kmh W 49.4 mph79.5 kmh 29.79 in1008.8 mb 0.00 in0.0 mm 0.00 in0.0 mm 0.02 in0.5 mm
02:25 AM 54.0°F12.2°C 37.7°F3.2°C 54% 27.1 mph W43.6 kmh W 50.8 mph81.8 kmh 29.80 in1009.1 mb 0.00 in0.0 mm 0.00 in0.0 mm 0.02 in0.5 mm
02:30 AM 54.0°F12.2°C 37.7°F3.2°C 54% 30.9 mph W49.7 kmh W 44.5 mph71.6 kmh 29.80 in1009.1 mb 0.00 in0.0 mm 0.00 in0.0 mm 0.02 in0.5 mm
02:35 AM 54.0°F12.2°C 37.7°F3.2°C 54% 30.6 mph W49.2 kmh W 45.9 mph73.9 kmh 29.80 in1009.1 mb 0.00 in0.0 mm 0.00 in0.0 mm 0.02 in0.5 mm
02:40 AM 53.9°F12.2°C 37.6°F3.1°C 54% 29.8 mph W48.0 kmh W 46.1 mph74.2 kmh 29.80 in1009.1 mb 0.00 in0.0 mm 0.00 in0.0 mm 0.02 in0.5 mm
02:45 AM 53.8°F12.1°C 37.5°F3.1°C 54% 29.7 mph W47.8 kmh W 38.7 mph62.3 kmh 29.80 in1009.1 mb 0.00 in0.0 mm 0.00 in0.0 mm 0.02 in0.5 mm
02:50 AM 53.8°F12.1°C 37.5°F3.1°C 54% 29.5 mph W47.5 kmh W 48.3 mph77.7 kmh 29.80 in1009.1 mb 0.00 in0.0 mm 0.00 in0.0 mm 0.02 in0.5 mm
02:55 AM 53.8°F12.1°C 37.5°F3.1°C 54% 28.9 mph W46.5 kmh W 40.9 mph65.8 kmh 29.82 in1009.8 mb 0.00 in0.0 mm 0.00 in0.0 mm 0.02 in0.5 mm
03:00 AM 53.7°F12.1°C 37.5°F3.1°C 54% 27.3 mph W43.9 kmh W 42.7 mph68.7 kmh 29.83 in1010.2 mb 0.00 in0.0 mm 0.00 in0.0 mm 0.02 in0.5 mm
03:05 AM 53.6°F12.0°C 37.6°F3.1°C 55% 26.6 mph W42.8 kmh W 42.9 mph69.0 kmh 29.83 in1010.2 mb 0.00 in0.0 mm 0.00 in0.0 mm 0.02 in0.5 mm
03:10 AM 53.6°F12.0°C 37.7°F3.2°C 55% 24.8 mph W39.9 kmh W 39.8 mph64.1 kmh 29.84 in1010.5 mb 0.00 in0.0 mm 0.00 in0.0 mm 0.02 in0.5 mm
03:15 AM 53.6°F12.0°C 37.8°F3.2°C 55% 24.2 mph W38.9 kmh W 40.5 mph65.2 kmh 29.84 in1010.5 mb 0.00 in0.0 mm 0.00 in0.0 mm 0.02 in0.5 mm
03:20 AM 53.6°F12.0°C 37.7°F3.2°C 55% 22.6 mph W36.4 kmh W 43.4 mph69.8 kmh 29.84 in1010.5 mb 0.00 in0.0 mm 0.00 in0.0 mm 0.02 in0.5 mm
03:25 AM 53.6°F12.0°C 37.4°F3.0°C 54% 23.3 mph W37.5 kmh W 43.4 mph69.8 kmh 29.84 in1010.5 mb 0.00 in0.0 mm 0.00 in0.0 mm 0.02 in0.5 mm
03:30 AM 53.6°F12.0°C 37.4°F3.0°C 54% 25.3 mph W40.7 kmh W 42.3 mph68.1 kmh 29.85 in1010.8 mb 0.00 in0.0 mm 0.00 in0.0 mm 0.02 in0.5 mm
03:35 AM 53.6°F12.0°C 37.4°F3.0°C 54% 25.1 mph W40.4 kmh W 42.9 mph69.0 kmh 29.85 in1010.8 mb 0.00 in0.0 mm 0.00 in0.0 mm 0.02 in0.5 mm
03:40 AM 53.7°F12.1°C 37.4°F3.0°C 54% 24.6 mph W39.6 kmh W 37.4 mph60.2 kmh 29.85 in1010.8 mb 0.00 in0.0 mm 0.00 in0.0 mm 0.02 in0.5 mm
03:45 AM 53.8°F12.1°C 37.1°F2.8°C 53% 24.2 mph W38.9 kmh W 42.9 mph69.0 kmh 29.86 in1011.2 mb 0.00 in0.0 mm 0.00 in0.0 mm 0.02 in0.5 mm
03:50 AM 53.8°F12.1°C 36.9°F2.7°C 53% 23.0 mph W37.0 kmh W 39.8 mph64.1 kmh 29.86 in1011.2 mb 0.00 in0.0 mm 0.00 in0.0 mm 0.02 in0.5 mm
03:55 AM 54.0°F12.2°C 36.7°F2.6°C 52% 23.5 mph W37.8 kmh W 40.9 mph65.8 kmh 29.86 in1011.2 mb 0.00 in0.0 mm 0.00 in0.0 mm 0.02 in0.5 mm
04:00 AM 54.0°F12.2°C 36.7°F2.6°C 52% 24.6 mph W39.6 kmh W 40.3 mph64.9 kmh 29.86 in1011.2 mb 0.00 in0.0 mm 0.00 in0.0 mm 0.02 in0.5 mm
04:05 AM 54.0°F12.2°C 36.5°F2.5°C 51% 24.5 mph W39.4 kmh W 42.3 mph68.1 kmh 29.86 in1011.2 mb 0.00 in0.0 mm 0.00 in0.0 mm 0.02 in0.5 mm
04:10 AM 54.0°F12.2°C 36.2°F2.3°C 51% 24.2 mph W38.9 kmh W 38.5 mph62.0 kmh 29.86 in1011.2 mb 0.00 in0.0 mm 0.00 in0.0 mm 0.02 in0.5 mm
04:15 AM 54.0°F12.2°C 36.2°F2.3°C 51% 24.6 mph W39.6 kmh W 41.2 mph66.3 kmh 29.86 in1011.2 mb 0.00 in0.0 mm 0.00 in0.0 mm 0.02 in0.5 mm
04:20 AM 54.0°F12.2°C 36.2°F2.3°C 51% 25.7 mph W41.4 kmh W 39.8 mph64.1 kmh 29.86 in1011.2 mb 0.00 in0.0 mm 0.00 in0.0 mm 0.02 in0.5 mm
04:25 AM 53.9°F12.2°C 36.2°F2.3°C 51% 26.2 mph W42.2 kmh W 44.1 mph71.0 kmh 29.86 in1011.2 mb 0.00 in0.0 mm 0.00 in0.0 mm 0.02 in0.5 mm
04:30 AM 53.8°F12.1°C 36.1°F2.3°C 51% 27.5 mph W44.3 kmh W 44.5 mph71.6 kmh 29.86 in1011.2 mb 0.00 in0.0 mm 0.00 in0.0 mm 0.02 in0.5 mm
04:35 AM 53.8°F12.1°C 36.1°F2.3°C 51% 27.2 mph W43.8 kmh W 41.8 mph67.3 kmh 29.86 in1011.2 mb 0.00 in0.0 mm 0.00 in0.0 mm 0.02 in0.5 mm
04:40 AM 53.8°F12.1°C 36.1°F2.3°C 51% 26.4 mph W42.5 kmh W 45.4 mph73.1 kmh 29.85 in1010.8 mb 0.00 in0.0 mm 0.00 in0.0 mm 0.02 in0.5 mm
04:45 AM 53.8°F12.1°C 36.1°F2.3°C 51% 26.4 mph W42.5 kmh W 39.4 mph63.4 kmh 29.85 in1010.8 mb 0.00 in0.0 mm 0.00 in0.0 mm 0.02 in0.5 mm
04:50 AM 53.7°F12.1°C 36.0°F2.2°C 51% 26.4 mph W42.5 kmh W 39.1 mph62.9 kmh 29.85 in1010.8 mb 0.00 in0.0 mm 0.00 in0.0 mm 0.02 in0.5 mm
04:55 AM 53.6°F12.0°C 36.0°F2.2°C 51% 26.3 mph W42.3 kmh W 43.4 mph69.8 kmh 29.85 in1010.8 mb 0.00 in0.0 mm 0.00 in0.0 mm 0.02 in0.5 mm
05:00 AM 53.6°F12.0°C 35.9°F2.2°C 51% 26.2 mph W42.2 kmh W 36.2 mph58.3 kmh 29.85 in1010.8 mb 0.00 in0.0 mm 0.00 in0.0 mm 0.02 in0.5 mm
05:05 AM 53.6°F12.0°C 35.9°F2.2°C 51% 25.8 mph W41.5 kmh W 41.8 mph67.3 kmh 29.85 in1010.8 mb 0.00 in0.0 mm 0.00 in0.0 mm 0.02 in0.5 mm
05:10 AM 53.6°F12.0°C 35.9°F2.2°C 51% 24.8 mph W39.9 kmh W 42.9 mph69.0 kmh 29.86 in1011.2 mb 0.00 in0.0 mm 0.00 in0.0 mm 0.02 in0.5 mm
05:15 AM 53.6°F12.0°C 35.9°F2.2°C 51% 24.5 mph W39.4 kmh W 40.5 mph65.2 kmh 29.86 in1011.2 mb 0.00 in0.0 mm 0.00 in0.0 mm 0.02 in0.5 mm
05:20 AM 53.5°F11.9°C 35.8°F2.1°C 51% 23.5 mph W37.8 kmh W 40.9 mph65.8 kmh 29.86 in1011.2 mb 0.00 in0.0 mm 0.00 in0.0 mm 0.02 in0.5 mm
05:25 AM 53.5°F11.9°C 35.8°F2.1°C 51% 23.5 mph W37.8 kmh W 38.7 mph62.3 kmh 29.86 in1011.2 mb 0.00 in0.0 mm 0.00 in0.0 mm 0.02 in0.5 mm
05:30 AM 53.4°F11.9°C 35.8°F2.1°C 51% 23.5 mph W37.8 kmh W 35.6 mph57.3 kmh 29.87 in1011.5 mb 0.00 in0.0 mm 0.00 in0.0 mm 0.02 in0.5 mm
05:35 AM 53.5°F11.9°C 35.8°F2.1°C 51% 22.9 mph W36.9 kmh W 35.1 mph56.5 kmh 29.87 in1011.5 mb 0.00 in0.0 mm 0.00 in0.0 mm 0.02 in0.5 mm
05:40 AM 53.4°F11.9°C 35.8°F2.1°C 51% 21.3 mph W34.3 kmh W 33.6 mph54.1 kmh 29.87 in1011.5 mb 0.00 in0.0 mm 0.00 in0.0 mm 0.02 in0.5 mm
05:45 AM 53.4°F11.9°C 35.7°F2.1°C 51% 20.8 mph W33.5 kmh W 34.2 mph55.0 kmh 29.88 in1011.9 mb 0.00 in0.0 mm 0.00 in0.0 mm 0.02 in0.5 mm
05:50 AM 53.4°F11.9°C 35.7°F2.1°C 51% 19.7 mph W31.7 kmh W 36.0 mph57.9 kmh 29.88 in1011.9 mb 0.00 in0.0 mm 0.00 in0.0 mm 0.02 in0.5 mm
05:55 AM 53.4°F11.9°C 35.7°F2.1°C 51% 20.0 mph W32.2 kmh W 33.6 mph54.1 kmh 29.88 in1011.9 mb 0.00 in0.0 mm 0.00 in0.0 mm 0.02 in0.5 mm
06:00 AM 53.2°F11.8°C 35.6°F2.0°C 51% 20.8 mph W33.5 kmh W 36.9 mph59.4 kmh 29.88 in1011.9 mb 0.00 in0.0 mm 0.00 in0.0 mm 0.02 in0.5 mm
06:05 AM 53.2°F11.8°C 35.6°F2.0°C 51% 21.2 mph W34.1 kmh W 36.9 mph59.4 kmh 29.88 in1011.9 mb 0.00 in0.0 mm 0.00 in0.0 mm 0.02 in0.5 mm
06:10 AM 53.1°F11.7°C 35.5°F1.9°C 51% 22.4 mph W36.0 kmh W 34.2 mph55.0 kmh 29.88 in1011.9 mb 0.00 in0.0 mm 0.00 in0.0 mm 0.02 in0.5 mm
06:15 AM 53.0°F11.7°C 35.8°F2.1°C 52% 22.4 mph W36.0 kmh W 35.1 mph56.5 kmh 29.88 in1011.9 mb 0.00 in0.0 mm 0.00 in0.0 mm 0.02 in0.5 mm
06:20 AM 52.9°F11.6°C 35.7°F2.1°C 52% 22.4 mph W36.0 kmh W 41.8 mph67.3 kmh 29.88 in1011.9 mb 0.00 in0.0 mm 0.00 in0.0 mm 0.02 in0.5 mm
06:25 AM 52.8°F11.6°C 35.7°F2.1°C 52% 23.3 mph W37.5 kmh W 41.8 mph67.3 kmh 29.88 in1011.9 mb 0.00 in0.0 mm 0.00 in0.0 mm 0.02 in0.5 mm
06:30 AM 52.6°F11.4°C 35.5°F1.9°C 52% 25.7 mph W41.4 kmh W 43.4 mph69.8 kmh 29.88 in1011.9 mb 0.00 in0.0 mm 0.00 in0.0 mm 0.02 in0.5 mm
06:35 AM 52.6°F11.4°C 35.5°F1.9°C 52% 26.2 mph W42.2 kmh W 41.6 mph66.9 kmh 29.88 in1011.9 mb 0.00 in0.0 mm 0.00 in0.0 mm 0.02 in0.5 mm
06:40 AM 52.5°F11.4°C 35.5°F1.9°C 52% 27.5 mph W44.3 kmh W 43.4 mph69.8 kmh 29.89 in1012.2 mb 0.00 in0.0 mm 0.00 in0.0 mm 0.02 in0.5 mm
06:45 AM 52.5°F11.4°C 35.7°F2.1°C 53% 27.2 mph W43.8 kmh W 46.1 mph74.2 kmh 29.89 in1012.2 mb 0.00 in0.0 mm 0.00 in0.0 mm 0.02 in0.5 mm
06:50 AM 52.5°F11.4°C 35.5°F1.9°C 52% 26.4 mph W42.5 kmh W 45.9 mph73.9 kmh 29.89 in1012.2 mb 0.00 in0.0 mm 0.00 in0.0 mm 0.02 in0.5 mm
06:55 AM 52.5°F11.4°C 35.4°F1.9°C 52% 26.5 mph W42.6 kmh W 42.9 mph69.0 kmh 29.89 in1012.2 mb 0.00 in0.0 mm 0.00 in0.0 mm 0.02 in0.5 mm
07:00 AM 52.5°F11.4°C 35.4°F1.9°C 52% 26.8 mph W43.1 kmh W 39.8 mph64.1 kmh 29.90 in1012.5 mb 0.00 in0.0 mm 0.00 in0.0 mm 0.02 in0.5 mm
07:05 AM 52.5°F11.4°C 35.4°F1.9°C 52% 26.7 mph W43.0 kmh W 43.4 mph69.8 kmh 29.90 in1012.5 mb 0.00 in0.0 mm 0.00 in0.0 mm 0.02 in0.5 mm
07:10 AM 52.5°F11.4°C 35.4°F1.9°C 52% 26.4 mph W42.5 kmh W 45.4 mph73.1 kmh 29.91 in1012.9 mb 0.00 in0.0 mm 0.00 in0.0 mm 0.02 in0.5 mm
07:15 AM 52.5°F11.4°C 35.4°F1.9°C 52% 26.5 mph W42.6 kmh W 39.8 mph64.1 kmh 29.91 in1012.9 mb 0.00 in0.0 mm 0.00 in0.0 mm 0.02 in0.5 mm
07:20 AM 52.5°F11.4°C 35.4°F1.9°C 52% 26.8 mph W43.1 kmh W 43.6 mph70.2 kmh 29.91 in1012.9 mb 0.00 in0.0 mm 0.00 in0.0 mm 0.02 in0.5 mm
07:25 AM 52.5°F11.4°C 35.4°F1.9°C 52% 27.5 mph W44.3 kmh W 47.0 mph75.6 kmh 29.91 in1012.9 mb 0.00 in0.0 mm 0.00 in0.0 mm 0.02 in0.5 mm
07:30 AM 52.5°F11.4°C 35.4°F1.9°C 52% 29.1 mph W46.8 kmh W 41.8 mph67.3 kmh 29.91 in1012.9 mb 0.00 in0.0 mm 0.00 in0.0 mm 0.02 in0.5 mm
07:35 AM 52.5°F11.4°C 35.4°F1.9°C 52% 29.0 mph W46.7 kmh W 41.2 mph66.3 kmh 29.91 in1012.9 mb 0.00 in0.0 mm 0.00 in0.0 mm 0.02 in0.5 mm
07:40 AM 52.3°F11.3°C 35.2°F1.8°C 52% 28.6 mph W46.0 kmh W 37.8 mph60.8 kmh 29.92 in1013.2 mb 0.00 in0.0 mm 0.00 in0.0 mm 0.02 in0.5 mm
07:45 AM 52.3°F11.3°C 35.2°F1.8°C 52% 28.3 mph W45.5 kmh W 38.7 mph62.3 kmh 29.92 in1013.2 mb 0.00 in0.0 mm 0.00 in0.0 mm 0.02 in0.5 mm
07:50 AM 52.3°F11.3°C 35.2°F1.8°C 52% 27.3 mph W43.9 kmh W 40.9 mph65.8 kmh 29.92 in1013.2 mb 0.00 in0.0 mm 0.00 in0.0 mm 0.02 in0.5 mm
07:55 AM 52.5°F11.4°C 35.4°F1.9°C 52% 27.2 mph W43.8 kmh W 44.5 mph71.6 kmh 29.93 in1013.5 mb 0.00 in0.0 mm 0.00 in0.0 mm 0.02 in0.5 mm
08:00 AM 52.5°F11.4°C 35.4°F1.9°C 52% 26.8 mph W43.1 kmh W 44.1 mph71.0 kmh 29.93 in1013.5 mb 0.00 in0.0 mm 0.00 in0.0 mm 0.02 in0.5 mm
08:05 AM 52.5°F11.4°C 35.4°F1.9°C 52% 27.2 mph W43.8 kmh W 46.1 mph74.2 kmh 29.93 in1013.5 mb 0.00 in0.0 mm 0.00 in0.0 mm 0.02 in0.5 mm
08:10 AM 52.4°F11.3°C 35.3°F1.8°C 52% 28.0 mph W45.1 kmh W 44.1 mph71.0 kmh 29.94 in1013.9 mb 0.00 in0.0 mm 0.00 in0.0 mm 0.02 in0.5 mm
08:15 AM 52.5°F11.4°C 35.4°F1.9°C 52% 28.3 mph W45.5 kmh W 47.9 mph77.1 kmh 29.94 in1013.9 mb 0.00 in0.0 mm 0.00 in0.0 mm 0.02 in0.5 mm
08:20 AM 52.5°F11.4°C 35.4°F1.9°C 52% 29.1 mph W46.8 kmh W 47.9 mph77.1 kmh 29.94 in1013.9 mb 0.00 in0.0 mm 0.00 in0.0 mm 0.02 in0.5 mm
08:25 AM 52.5°F11.4°C 35.4°F1.9°C 52% 29.1 mph W46.8 kmh W 39.8 mph64.1 kmh 29.95 in1014.2 mb 0.00 in0.0 mm 0.00 in0.0 mm 0.02 in0.5 mm
08:30 AM 52.5°F11.4°C 35.4°F1.9°C 52% 29.1 mph W46.8 kmh W 51.4 mph82.7 kmh 29.95 in1014.2 mb 0.00 in0.0 mm 0.00 in0.0 mm 0.02 in0.5 mm
08:35 AM 52.5°F11.4°C 35.4°F1.9°C 52% 28.5 mph W45.9 kmh W 47.6 mph76.6 kmh 29.95 in1014.2 mb 0.00 in0.0 mm 0.00 in0.0 mm 0.02 in0.5 mm
08:40 AM 52.4°F11.3°C 35.3°F1.8°C 52% 26.8 mph W43.1 kmh W 38.0 mph61.2 kmh 29.97 in1014.9 mb 0.00 in0.0 mm 0.00 in0.0 mm 0.02 in0.5 mm
08:45 AM 52.5°F11.4°C 35.4°F1.9°C 52% 26.8 mph W43.1 kmh W 45.4 mph73.1 kmh 29.97 in1014.9 mb 0.00 in0.0 mm 0.00 in0.0 mm 0.02 in0.5 mm
08:50 AM 52.8°F11.6°C 35.7°F2.1°C 52% 26.8 mph W43.1 kmh W 39.8 mph64.1 kmh 29.97 in1014.9 mb 0.00 in0.0 mm 0.00 in0.0 mm 0.02 in0.5 mm
08:55 AM 53.1°F11.7°C 35.8°F2.1°C 52% 26.3 mph W42.3 kmh W 42.9 mph69.0 kmh 29.98 in1015.2 mb 0.00 in0.0 mm 0.00 in0.0 mm 0.02 in0.5 mm
09:00 AM 53.2°F11.8°C 35.6°F2.0°C 51% 24.8 mph W39.9 kmh W 43.6 mph70.2 kmh 29.99 in1015.6 mb 0.00 in0.0 mm 0.00 in0.0 mm 0.02 in0.5 mm
09:05 AM 53.3°F11.8°C 35.7°F2.1°C 51% 26.4 mph W42.5 kmh W 80.8 mph130.0 kmh 29.99 in1015.6 mb 0.00 in0.0 mm 0.00 in0.0 mm 0.02 in0.5 mm
09:10 AM 53.3°F11.8°C 35.7°F2.1°C 51% 30.6 mph W49.2 kmh W 39.1 mph62.9 kmh 29.99 in1015.6 mb 0.00 in0.0 mm 0.00 in0.0 mm 0.02 in0.5 mm
09:15 AM 53.2°F11.8°C 35.5°F1.9°C 51% 28.3 mph W45.5 kmh W 41.2 mph66.3 kmh 29.99 in1015.6 mb 0.00 in0.0 mm 0.00 in0.0 mm 0.02 in0.5 mm
09:18 AM 53.1°F11.7°C 35.9°F2.2°C 52% 29.5 mph W47.5 kmh W 38.0 mph61.2 kmh 29.98 in1015.2 mb 0.00 in0.0 mm 0.00 in0.0 mm 0.02 in0.5 mm
09:23 AM 53.1°F11.7°C 35.9°F2.2°C 52% 29.5 mph W47.5 kmh W 26.2 mph42.2 kmh 29.98 in1015.2 mb 0.00 in0.0 mm 0.00 in0.0 mm 0.02 in0.5 mm
09:28 AM 53.2°F11.8°C 35.6°F2.0°C 51% 33.8 mph W54.4 kmh W 23.0 mph37.0 kmh 29.98 in1015.2 mb 0.00 in0.0 mm 0.00 in0.0 mm 0.02 in0.5 mm
09:33 AM 53.4°F11.9°C 35.7°F2.1°C 51% 33.8 mph W54.4 kmh W 35.6 mph57.3 kmh 29.99 in1015.6 mb 0.00 in0.0 mm 0.00 in0.0 mm 0.02 in0.5 mm
09:38 AM 53.4°F11.9°C 35.7°F2.1°C 51% 29.1 mph W46.8 kmh W 34.2 mph55.0 kmh 29.99 in1015.6 mb 0.00 in0.0 mm 0.00 in0.0 mm 0.02 in0.5 mm
09:43 AM 53.2°F11.8°C 35.6°F2.0°C 51% 29.1 mph W46.8 kmh W 41.2 mph66.3 kmh 29.99 in1015.6 mb 0.00 in0.0 mm 0.00 in0.0 mm 0.02 in0.5 mm
09:55 AM 53.4°F11.9°C 35.7°F2.1°C 51% 29.8 mph W48.0 kmh W 47.2 mph76.0 kmh 30.00 in1015.9 mb 0.00 in0.0 mm 0.00 in0.0 mm 0.02 in0.5 mm
10:00 AM 53.5°F11.9°C 35.8°F2.1°C 51% 31.8 mph W51.2 kmh W 44.5 mph71.6 kmh 30.00 in1015.9 mb 0.00 in0.0 mm 0.00 in0.0 mm 0.02 in0.5 mm
10:05 AM 53.8°F12.1°C 36.1°F2.3°C 51% 30.2 mph W48.6 kmh W 34.9 mph56.2 kmh 30.00 in1015.9 mb 0.00 in0.0 mm 0.00 in0.0 mm 0.02 in0.5 mm
10:10 AM 53.9°F12.2°C 36.2°F2.3°C 51% 26.2 mph W42.2 kmh W 36.2 mph58.3 kmh 30.02 in1016.6 mb 0.00 in0.0 mm 0.00 in0.0 mm 0.02 in0.5 mm
10:15 AM 54.2°F12.3°C 36.2°F2.3°C 51% 25.2 mph W40.6 kmh W 44.7 mph71.9 kmh 30.02 in1016.6 mb 0.00 in0.0 mm 0.00 in0.0 mm 0.02 in0.5 mm
10:20 AM 54.3°F12.4°C 36.1°F2.3°C 50% 22.6 mph W36.4 kmh W 42.7 mph68.7 kmh 30.02 in1016.6 mb 0.00 in0.0 mm 0.00 in0.0 mm 0.02 in0.5 mm
10:25 AM 54.5°F12.5°C 36.2°F2.3°C 50% 23.6 mph W38.0 kmh W 40.9 mph65.8 kmh 30.02 in1016.6 mb 0.00 in0.0 mm 0.00 in0.0 mm 0.02 in0.5 mm
10:30 AM 54.7°F12.6°C 36.4°F2.4°C 50% 26.4 mph W42.5 kmh W 42.9 mph69.0 kmh 30.02 in1016.6 mb 0.00 in0.0 mm 0.00 in0.0 mm 0.02 in0.5 mm
10:35 AM 54.7°F12.6°C 36.4°F2.4°C 50% 25.5 mph W41.0 kmh W 42.9 mph69.0 kmh 30.02 in1016.6 mb 0.00 in0.0 mm 0.00 in0.0 mm 0.02 in0.5 mm
10:40 AM 54.9°F12.7°C 36.6°F2.6°C 50% 23.0 mph W37.0 kmh W 44.7 mph71.9 kmh 30.02 in1016.6 mb 0.00 in0.0 mm 0.00 in0.0 mm 0.02 in0.5 mm
10:45 AM 55.0°F12.8°C 36.7°F2.6°C 50% 22.9 mph W36.9 kmh W 41.6 mph66.9 kmh 30.03 in1016.9 mb 0.00 in0.0 mm 0.00 in0.0 mm 0.02 in0.5 mm
10:50 AM 55.0°F12.8°C 36.7°F2.6°C 50% 22.4 mph WNW36.0 kmh WNW 40.3 mph64.9 kmh 30.03 in1016.9 mb 0.00 in0.0 mm 0.00 in0.0 mm 0.02 in0.5 mm
10:55 AM 55.2°F12.9°C 36.9°F2.7°C 50% 22.1 mph W35.6 kmh W 36.0 mph57.9 kmh 30.03 in1016.9 mb 0.00 in0.0 mm 0.00 in0.0 mm 0.02 in0.5 mm
11:00 AM 55.6°F13.1°C 37.1°F2.8°C 50% 21.3 mph W34.3 kmh W 33.1 mph53.3 kmh 30.03 in1016.9 mb 0.00 in0.0 mm 0.00 in0.0 mm 0.02 in0.5 mm
11:05 AM 55.8°F13.2°C 36.9°F2.7°C 49% 21.3 mph W34.3 kmh W 39.4 mph63.4 kmh 30.03 in1016.9 mb 0.00 in0.0 mm 0.00 in0.0 mm 0.02 in0.5 mm
11:10 AM 55.8°F13.2°C 36.9°F2.7°C 49% 21.3 mph W34.3 kmh W 40.5 mph65.2 kmh 30.04 in1017.3 mb 0.00 in0.0 mm 0.00 in0.0 mm 0.02 in0.5 mm
11:15 AM 55.9°F13.3°C 37.0°F2.8°C 49% 21.7 mph W34.9 kmh W 35.6 mph57.3 kmh 30.04 in1017.3 mb 0.00 in0.0 mm 0.00 in0.0 mm 0.02 in0.5 mm
11:20 AM 56.1°F13.4°C 37.0°F2.8°C 49% 23.0 mph W37.0 kmh W 37.8 mph60.8 kmh 30.04 in1017.3 mb 0.00 in0.0 mm 0.00 in0.0 mm 0.02 in0.5 mm
11:25 AM 56.1°F13.4°C 37.2°F2.9°C 49% 22.9 mph W36.9 kmh W 32.0 mph51.5 kmh 30.05 in1017.6 mb 0.00 in0.0 mm 0.00 in0.0 mm 0.02 in0.5 mm
11:30 AM 56.3°F13.5°C 37.2°F2.9°C 49% 22.4 mph W36.0 kmh W 32.7 mph52.6 kmh 30.05 in1017.6 mb 0.00 in0.0 mm 0.00 in0.0 mm 0.02 in0.5 mm
11:35 AM 56.6°F13.7°C 37.2°F2.9°C 48% 21.5 mph W34.6 kmh W 32.0 mph51.5 kmh 30.05 in1017.6 mb 0.00 in0.0 mm 0.00 in0.0 mm 0.02 in0.5 mm
11:40 AM 56.8°F13.8°C 37.3°F2.9°C 48% 19.2 mph W30.9 kmh W 34.4 mph55.4 kmh 30.06 in1017.9 mb 0.00 in0.0 mm 0.00 in0.0 mm 0.02 in0.5 mm
11:45 AM 57.0°F13.9°C 37.5°F3.1°C 48% 18.3 mph W29.5 kmh W 26.4 mph42.5 kmh 30.06 in1017.9 mb 0.00 in0.0 mm 0.00 in0.0 mm 0.02 in0.5 mm
11:50 AM 57.2°F14.0°C 37.3°F2.9°C 47% 15.9 mph W25.6 kmh W 38.7 mph62.3 kmh 30.06 in1017.9 mb 0.00 in0.0 mm 0.00 in0.0 mm 0.02 in0.5 mm
11:55 AM 57.4°F14.1°C 37.7°F3.2°C 48% 16.5 mph W26.6 kmh W 29.1 mph46.8 kmh 30.06 in1017.9 mb 0.00 in0.0 mm 0.00 in0.0 mm 0.02 in0.5 mm
12:00 PM 57.6°F14.2°C 37.6°F3.1°C 47% 18.1 mph W29.1 kmh W 34.2 mph55.0 kmh 30.06 in1017.9 mb 0.00 in0.0 mm 0.00 in0.0 mm 0.02 in0.5 mm
12:05 PM 57.6°F14.2°C 37.9°F3.3°C 48% 18.2 mph W29.3 kmh W 26.8 mph43.1 kmh 30.06 in1017.9 mb 0.00 in0.0 mm 0.00 in0.0 mm 0.02 in0.5 mm
12:10 PM 57.5°F14.2°C 37.9°F3.3°C 48% 18.6 mph W29.9 kmh W 26.4 mph42.5 kmh 30.07 in1018.3 mb 0.00 in0.0 mm 0.00 in0.0 mm 0.02 in0.5 mm
12:15 PM 57.3°F14.1°C 37.7°F3.2°C 48% 17.8 mph W28.6 kmh W 27.3 mph43.9 kmh 30.07 in1018.3 mb 0.00 in0.0 mm 0.00 in0.0 mm 0.02 in0.5 mm
12:20 PM 57.3°F14.1°C 38.1°F3.4°C 49% 15.9 mph W25.6 kmh W 29.1 mph46.8 kmh 30.07 in1018.3 mb 0.00 in0.0 mm 0.00 in0.0 mm 0.02 in0.5 mm
12:25 PM 57.7°F14.3°C 38.2°F3.4°C 48% 16.8 mph W27.0 kmh W 30.6 mph49.2 kmh 30.06 in1017.9 mb 0.00 in0.0 mm 0.00 in0.0 mm 0.02 in0.5 mm
12:30 PM 58.2°F14.6°C 38.6°F3.7°C 48% 19.2 mph WSW30.9 kmh WSW 27.3 mph43.9 kmh 30.06 in1017.9 mb 0.00 in0.0 mm 0.00 in0.0 mm 0.02 in0.5 mm
12:35 PM 58.7°F14.8°C 38.7°F3.7°C 47% 18.9 mph WSW30.4 kmh WSW 30.6 mph49.2 kmh 30.06 in1017.9 mb 0.00 in0.0 mm 0.00 in0.0 mm 0.02 in0.5 mm
12:40 PM 58.8°F14.9°C 38.6°F3.7°C 47% 17.9 mph W28.8 kmh W 30.9 mph49.7 kmh 30.06 in1017.9 mb 0.00 in0.0 mm 0.00 in0.0 mm 0.02 in0.5 mm
12:45 PM 58.8°F14.9°C 38.4°F3.6°C 47% 18.8 mph W30.3 kmh W 32.4 mph52.1 kmh 30.06 in1017.9 mb 0.00 in0.0 mm 0.00 in0.0 mm 0.02 in0.5 mm
12:50 PM 58.9°F14.9°C 38.6°F3.7°C 47% 21.3 mph W34.3 kmh W 34.4 mph55.4 kmh 30.06 in1017.9 mb 0.00 in0.0 mm 0.00 in0.0 mm 0.02 in0.5 mm
12:55 PM 59.0°F15.0°C 38.4°F3.6°C 46% 20.7 mph W33.3 kmh W 27.5 mph44.3 kmh 30.06 in1017.9 mb 0.00 in0.0 mm 0.00 in0.0 mm 0.02 in0.5 mm
01:00 PM 59.2°F15.1°C 38.5°F3.6°C 46% 19.2 mph W30.9 kmh W 33.1 mph53.3 kmh 30.06 in1017.9 mb 0.00 in0.0 mm 0.00 in0.0 mm 0.02 in0.5 mm
01:05 PM 59.2°F15.1°C 38.4°F3.6°C 46% 19.4 mph W31.2 kmh W 29.1 mph46.8 kmh 30.06 in1017.9 mb 0.00 in0.0 mm 0.00 in0.0 mm 0.02 in0.5 mm
01:10 PM 59.3°F15.2°C 38.6°F3.7°C 46% 19.7 mph W31.7 kmh W 31.8 mph51.2 kmh 30.05 in1017.6 mb 0.00 in0.0 mm 0.00 in0.0 mm 0.02 in0.5 mm
01:15 PM 59.5°F15.3°C 39.3°F4.1°C 47% 18.6 mph W29.9 kmh W 24.6 mph39.6 kmh 30.05 in1017.6 mb 0.00 in0.0 mm 0.00 in0.0 mm 0.02 in0.5 mm
01:20 PM 59.8°F15.4°C 39.0°F3.9°C 46% 15.7 mph W25.3 kmh W 30.6 mph49.2 kmh 30.05 in1017.6 mb 0.00 in0.0 mm 0.00 in0.0 mm 0.02 in0.5 mm
01:25 PM 59.7°F15.4°C 38.8°F3.8°C 46% 16.3 mph W26.2 kmh W 29.1 mph46.8 kmh 30.05 in1017.6 mb 0.00 in0.0 mm 0.00 in0.0 mm 0.02 in0.5 mm
01:30 PM 59.8°F15.4°C 39.0°F3.9°C 46% 17.9 mph W28.8 kmh W 26.8 mph43.1 kmh 30.05 in1017.6 mb 0.00 in0.0 mm 0.00 in0.0 mm 0.02 in0.5 mm
01:35 PM 60.1°F15.6°C 39.2°F4.0°C 46% 17.5 mph W28.2 kmh W 29.8 mph48.0 kmh 30.05 in1017.6 mb 0.00 in0.0 mm 0.00 in0.0 mm 0.02 in0.5 mm
01:40 PM 60.1°F15.6°C 39.2°F4.0°C 46% 16.3 mph W26.2 kmh W 34.2 mph55.0 kmh 30.06 in1017.9 mb 0.00 in0.0 mm 0.00 in0.0 mm 0.02 in0.5 mm
01:45 PM 59.9°F15.5°C 39.1°F3.9°C 46% 17.4 mph W28.0 kmh W 32.4 mph52.1 kmh 30.06 in1017.9 mb 0.00 in0.0 mm 0.00 in0.0 mm 0.02 in0.5 mm
01:50 PM 60.0°F15.6°C 39.2°F4.0°C 46% 20.1 mph W32.3 kmh W 32.7 mph52.6 kmh 30.06 in1017.9 mb 0.00 in0.0 mm 0.00 in0.0 mm 0.02 in0.5 mm
01:55 PM 60.0°F15.6°C 39.2°F4.0°C 46% 19.9 mph W32.0 kmh W 32.4 mph52.1 kmh 30.06 in1017.9 mb 0.00 in0.0 mm 0.00 in0.0 mm 0.02 in0.5 mm
02:00 PM 60.0°F15.6°C 39.2°F4.0°C 46% 19.2 mph W30.9 kmh W 31.8 mph51.2 kmh 30.06 in1017.9 mb 0.00 in0.0 mm 0.00 in0.0 mm 0.02 in0.5 mm
02:05 PM 60.1°F15.6°C 39.2°F4.0°C 46% 18.8 mph W30.3 kmh W 28.4 mph45.7 kmh 30.06 in1017.9 mb 0.00 in0.0 mm 0.00 in0.0 mm 0.02 in0.5 mm
02:10 PM 60.1°F15.6°C 39.2°F4.0°C 46% 17.4 mph W28.0 kmh W 29.8 mph48.0 kmh 30.07 in1018.3 mb 0.00 in0.0 mm 0.00 in0.0 mm 0.02 in0.5 mm
02:15 PM 60.2°F15.7°C 39.6°F4.2°C 46% 17.6 mph W28.3 kmh W 32.0 mph51.5 kmh 30.07 in1018.3 mb 0.00 in0.0 mm 0.00 in0.0 mm 0.02 in0.5 mm
02:20 PM 60.3°F15.7°C 39.4°F4.1°C 46% 18.1 mph W29.1 kmh W 34.4 mph55.4 kmh 30.07 in1018.3 mb 0.00 in0.0 mm 0.00 in0.0 mm 0.02 in0.5 mm
02:25 PM 60.3°F15.7°C 39.4°F4.1°C 46% 18.2 mph W29.3 kmh W 35.6 mph57.3 kmh 30.06 in1017.9 mb 0.00 in0.0 mm 0.00 in0.0 mm 0.02 in0.5 mm
02:30 PM 60.3°F15.7°C 39.6°F4.2°C 46% 18.6 mph W29.9 kmh W 33.8 mph54.4 kmh 30.06 in1017.9 mb 0.00 in0.0 mm 0.00 in0.0 mm 0.02 in0.5 mm
02:35 PM 60.4°F15.8°C 40.1°F4.5°C 47% 18.6 mph W29.9 kmh W 27.5 mph44.3 kmh 30.06 in1017.9 mb 0.00 in0.0 mm 0.00 in0.0 mm 0.02 in0.5 mm
02:40 PM 60.4°F15.8°C 39.8°F4.3°C 46% 18.6 mph W29.9 kmh W 28.4 mph45.7 kmh 30.07 in1018.3 mb 0.00 in0.0 mm 0.00 in0.0 mm 0.02 in0.5 mm
02:45 PM 60.4°F15.8°C 39.6°F4.2°C 46% 18.0 mph W29.0 kmh W 34.4 mph55.4 kmh 30.07 in1018.3 mb 0.00 in0.0 mm 0.00 in0.0 mm 0.02 in0.5 mm
02:50 PM 60.3°F15.7°C 39.7°F4.3°C 47% 16.3 mph WNW26.2 kmh WNW 30.9 mph49.7 kmh 30.07 in1018.3 mb 0.00 in0.0 mm 0.00 in0.0 mm 0.02 in0.5 mm
02:55 PM 60.4°F15.8°C 40.0°F4.4°C 47% 16.2 mph WNW26.1 kmh WNW 28.0 mph45.1 kmh 30.07 in1018.3 mb 0.00 in0.0 mm 0.00 in0.0 mm 0.02 in0.5 mm
03:00 PM 60.4°F15.8°C 39.5°F4.2°C 46% 15.9 mph W25.6 kmh W 31.8 mph51.2 kmh 30.07 in1018.3 mb 0.00 in0.0 mm 0.00 in0.0 mm 0.02 in0.5 mm
03:05 PM 60.3°F15.7°C 39.5°F4.2°C 46% 16.7 mph WNW26.9 kmh WNW 33.1 mph53.3 kmh 30.07 in1018.3 mb 0.00 in0.0 mm 0.00 in0.0 mm 0.02 in0.5 mm
03:10 PM 60.2°F15.7°C 39.4°F4.1°C 46% 19.0 mph NW30.6 kmh NW 32.7 mph52.6 kmh 30.08 in1018.6 mb 0.00 in0.0 mm 0.00 in0.0 mm 0.02 in0.5 mm
03:15 PM 60.2°F15.7°C 39.7°F4.3°C 47% 19.4 mph WNW31.2 kmh WNW 26.8 mph43.1 kmh 30.09 in1019.0 mb 0.00 in0.0 mm 0.00 in0.0 mm 0.02 in0.5 mm
03:20 PM 60.3°F15.7°C 40.0°F4.4°C 47% 20.4 mph WNW32.8 kmh WNW 23.5 mph37.8 kmh 30.09 in1019.0 mb 0.00 in0.0 mm 0.00 in0.0 mm 0.02 in0.5 mm
03:25 PM 60.4°F15.8°C 40.1°F4.5°C 47% 18.5 mph WNW29.8 kmh WNW 28.6 mph46.0 kmh 30.09 in1019.0 mb 0.00 in0.0 mm 0.00 in0.0 mm 0.02 in0.5 mm
03:30 PM 60.5°F15.8°C 39.8°F4.3°C 46% 13.6 mph WNW21.9 kmh WNW 26.8 mph43.1 kmh 30.09 in1019.0 mb 0.00 in0.0 mm 0.00 in0.0 mm 0.02 in0.5 mm
03:35 PM 60.4°F15.8°C 40.1°F4.5°C 47% 14.6 mph WNW23.5 kmh WNW 30.6 mph49.2 kmh 30.09 in1019.0 mb 0.00 in0.0 mm 0.00 in0.0 mm 0.02 in0.5 mm
03:40 PM 60.4°F15.8°C 40.1°F4.5°C 47% 17.0 mph W27.4 kmh W 27.5 mph44.3 kmh 30.09 in1019.0 mb 0.00 in0.0 mm 0.00 in0.0 mm 0.02 in0.5 mm
03:45 PM 60.3°F15.7°C 40.0°F4.4°C 47% 17.6 mph W28.3 kmh W 31.8 mph51.2 kmh 30.10 in1019.3 mb 0.00 in0.0 mm 0.00 in0.0 mm 0.02 in0.5 mm
03:50 PM 60.1°F15.6°C 40.2°F4.6°C 48% 19.2 mph W30.9 kmh W 25.7 mph41.4 kmh 30.10 in1019.3 mb 0.00 in0.0 mm 0.00 in0.0 mm 0.02 in0.5 mm
03:55 PM 60.2°F15.7°C 40.5°F4.7°C 48% 18.0 mph W29.0 kmh W 26.4 mph42.5 kmh 30.10 in1019.3 mb 0.00 in0.0 mm 0.00 in0.0 mm 0.02 in0.5 mm
04:00 PM 60.3°F15.7°C 40.1°F4.5°C 47% 14.8 mph W23.8 kmh W 24.8 mph39.9 kmh 30.10 in1019.3 mb 0.00 in0.0 mm 0.00 in0.0 mm 0.02 in0.5 mm
04:05 PM 60.3°F15.7°C 39.9°F4.4°C 47% 14.8 mph W23.8 kmh W 26.2 mph42.2 kmh 30.10 in1019.3 mb 0.00 in0.0 mm 0.00 in0.0 mm 0.02 in0.5 mm
04:10 PM 60.2°F15.7°C 40.2°F4.6°C 48% 14.8 mph WNW23.8 kmh WNW 28.4 mph45.7 kmh 30.10 in1019.3 mb 0.00 in0.0 mm 0.00 in0.0 mm 0.02 in0.5 mm
04:15 PM 60.1°F15.6°C 40.3°F4.6°C 48% 14.8 mph WNW23.8 kmh WNW 24.8 mph39.9 kmh 30.10 in1019.3 mb 0.00 in0.0 mm 0.00 in0.0 mm 0.02 in0.5 mm
04:20 PM 60.1°F15.6°C 40.3°F4.6°C 48% 14.8 mph W23.8 kmh W 28.4 mph45.7 kmh 30.10 in1019.3 mb 0.00 in0.0 mm 0.00 in0.0 mm 0.02 in0.5 mm
04:25 PM 60.1°F15.6°C 40.3°F4.6°C 48% 14.6 mph W23.5 kmh W 21.9 mph35.2 kmh 30.10 in1019.3 mb 0.00 in0.0 mm 0.00 in0.0 mm 0.02 in0.5 mm
04:30 PM 59.9°F15.5°C 40.5°F4.7°C 49% 14.1 mph WNW22.7 kmh WNW 21.9 mph35.2 kmh 30.11 in1019.6 mb 0.00 in0.0 mm 0.00 in0.0 mm 0.02 in0.5 mm
04:35 PM 60.0°F15.6°C 40.8°F4.9°C 49% 13.8 mph W22.2 kmh W 27.5 mph44.3 kmh 30.11 in1019.6 mb 0.00 in0.0 mm 0.00 in0.0 mm 0.02 in0.5 mm
04:40 PM 59.8°F15.4°C 40.6°F4.8°C 49% 13.0 mph W20.9 kmh W 25.7 mph41.4 kmh 30.11 in1019.6 mb 0.00 in0.0 mm 0.00 in0.0 mm 0.02 in0.5 mm
04:45 PM 59.7°F15.4°C 40.5°F4.7°C 49% 13.6 mph W21.9 kmh W 30.9 mph49.7 kmh 30.11 in1019.6 mb 0.00 in0.0 mm 0.00 in0.0 mm 0.02 in0.5 mm
04:50 PM 59.7°F15.4°C 40.5°F4.7°C 49% 15.2 mph W24.5 kmh W 27.3 mph43.9 kmh 30.11 in1019.6 mb 0.00 in0.0 mm 0.00 in0.0 mm 0.02 in0.5 mm
04:55 PM 59.6°F15.3°C 40.6°F4.8°C 49% 15.5 mph W24.9 kmh W 27.5 mph44.3 kmh 30.11 in1019.6 mb 0.00 in0.0 mm 0.00 in0.0 mm 0.02 in0.5 mm
05:00 PM 59.6°F15.3°C 40.4°F4.7°C 49% 16.3 mph W26.2 kmh W 25.7 mph41.4 kmh 30.11 in1019.6 mb 0.00 in0.0 mm 0.00 in0.0 mm 0.02 in0.5 mm
05:05 PM 59.5°F15.3°C 40.9°F4.9°C 50% 16.0 mph W25.7 kmh W 25.7 mph41.4 kmh 30.11 in1019.6 mb 0.00 in0.0 mm 0.00 in0.0 mm 0.02 in0.5 mm
05:10 PM 59.4°F15.2°C 40.7°F4.8°C 50% 15.2 mph W24.5 kmh W 26.8 mph43.1 kmh 30.11 in1019.6 mb 0.00 in0.0 mm 0.00 in0.0 mm 0.02 in0.5 mm
05:15 PM 59.2°F15.1°C 40.6°F4.8°C 50% 16.1 mph W25.9 kmh W 29.1 mph46.8 kmh 30.11 in1019.6 mb 0.00 in0.0 mm 0.00 in0.0 mm 0.02 in0.5 mm
05:20 PM 58.9°F14.9°C 40.5°F4.7°C 50% 18.6 mph W29.9 kmh W 23.0 mph37.0 kmh 30.11 in1019.6 mb 0.00 in0.0 mm 0.00 in0.0 mm 0.02 in0.5 mm
05:25 PM 58.7°F14.8°C 40.6°F4.8°C 51% 17.8 mph W28.6 kmh W 24.2 mph38.9 kmh 30.11 in1019.6 mb 0.00 in0.0 mm 0.00 in0.0 mm 0.02 in0.5 mm
05:30 PM 58.5°F14.7°C 40.4°F4.7°C 51% 15.7 mph W25.3 kmh W 29.5 mph47.5 kmh 30.11 in1019.6 mb 0.00 in0.0 mm 0.00 in0.0 mm 0.02 in0.5 mm
05:35 PM 58.4°F14.7°C 40.6°F4.8°C 52% 15.4 mph WSW24.8 kmh WSW 23.7 mph38.1 kmh 30.11 in1019.6 mb 0.00 in0.0 mm 0.00 in0.0 mm 0.02 in0.5 mm
05:40 PM 58.2°F14.6°C 40.6°F4.8°C 52% 14.8 mph WSW23.8 kmh WSW 23.7 mph38.1 kmh 30.11 in1019.6 mb 0.00 in0.0 mm 0.00 in0.0 mm 0.02 in0.5 mm
05:45 PM 57.9°F14.4°C 40.4°F4.7°C 52% 14.7 mph WSW23.7 kmh WSW 25.3 mph40.7 kmh 30.11 in1019.6 mb 0.00 in0.0 mm 0.00 in0.0 mm 0.02 in0.5 mm
05:50 PM 57.8°F14.3°C 40.8°F4.9°C 53% 14.5 mph W23.3 kmh W 26.2 mph42.2 kmh 30.11 in1019.6 mb 0.00 in0.0 mm 0.00 in0.0 mm 0.02 in0.5 mm
05:55 PM 57.7°F14.3°C 40.7°F4.8°C 53% 14.7 mph W23.7 kmh W 26.2 mph42.2 kmh 30.12 in1020.0 mb 0.00 in0.0 mm 0.00 in0.0 mm 0.02 in0.5 mm
06:00 PM 57.6°F14.2°C 40.6°F4.8°C 53% 15.2 mph W24.5 kmh W 23.5 mph37.8 kmh 30.12 in1020.0 mb 0.00 in0.0 mm 0.00 in0.0 mm 0.02 in0.5 mm
06:05 PM 57.4°F14.1°C 40.5°F4.7°C 53% 15.5 mph W24.9 kmh W 24.2 mph38.9 kmh 30.12 in1020.0 mb 0.00 in0.0 mm 0.00 in0.0 mm 0.02 in0.5 mm
06:10 PM 57.4°F14.1°C 40.9°F4.9°C 54% 16.3 mph W26.2 kmh W 26.8 mph43.1 kmh 30.12 in1020.0 mb 0.00 in0.0 mm 0.00 in0.0 mm 0.02 in0.5 mm
06:15 PM 57.3°F14.1°C 40.8°F4.9°C 54% 16.3 mph WSW26.2 kmh WSW 27.5 mph44.3 kmh 30.13 in1020.3 mb 0.00 in0.0 mm 0.00 in0.0 mm 0.02 in0.5 mm
06:20 PM 57.2°F14.0°C 40.7°F4.8°C 54% 16.3 mph WSW26.2 kmh WSW 23.7 mph38.1 kmh 30.13 in1020.3 mb 0.00 in0.0 mm 0.00 in0.0 mm 0.02 in0.5 mm
06:25 PM 57.0°F13.9°C 40.5°F4.7°C 54% 16.3 mph WSW26.2 kmh WSW 26.8 mph43.1 kmh 30.13 in1020.3 mb 0.00 in0.0 mm 0.00 in0.0 mm 0.02 in0.5 mm
06:30 PM 57.0°F13.9°C 40.5°F4.7°C 54% 16.3 mph WSW26.2 kmh WSW 26.2 mph42.2 kmh 30.13 in1020.3 mb 0.00 in0.0 mm 0.00 in0.0 mm 0.02 in0.5 mm
06:35 PM 57.0°F13.9°C 40.5°F4.7°C 54% 16.5 mph WSW26.6 kmh WSW 25.7 mph41.4 kmh 30.13 in1020.3 mb 0.00 in0.0 mm 0.00 in0.0 mm 0.02 in0.5 mm
06:40 PM 57.0°F13.9°C 40.5°F4.7°C 54% 17.0 mph WSW27.4 kmh WSW 26.2 mph42.2 kmh 30.13 in1020.3 mb 0.00 in0.0 mm 0.00 in0.0 mm 0.02 in0.5 mm
06:45 PM 56.8°F13.8°C 40.4°F4.7°C 54% 16.8 mph WSW27.0 kmh WSW 28.0 mph45.1 kmh 30.14 in1020.7 mb 0.00 in0.0 mm 0.00 in0.0 mm 0.02 in0.5 mm
06:50 PM 56.8°F13.8°C 40.3°F4.6°C 54% 16.3 mph WSW26.2 kmh WSW 28.6 mph46.0 kmh 30.14 in1020.7 mb 0.00 in0.0 mm 0.00 in0.0 mm 0.02 in0.5 mm
06:55 PM 56.8°F13.8°C 39.9°F4.4°C 53% 16.5 mph WSW26.6 kmh WSW 26.8 mph43.1 kmh 30.14 in1020.7 mb 0.00 in0.0 mm 0.00 in0.0 mm 0.02 in0.5 mm
07:00 PM 56.8°F13.8°C 39.9°F4.4°C 53% 16.8 mph W27.0 kmh W 23.7 mph38.1 kmh 30.14 in1020.7 mb 0.00 in0.0 mm 0.00 in0.0 mm 0.02 in0.5 mm
07:05 PM 56.8°F13.8°C 39.8°F4.3°C 53% 16.7 mph W26.9 kmh W 29.1 mph46.8 kmh 30.14 in1020.7 mb 0.00 in0.0 mm 0.00 in0.0 mm 0.02 in0.5 mm
07:10 PM 56.9°F13.8°C 39.4°F4.1°C 52% 16.3 mph W26.2 kmh W 25.7 mph41.4 kmh 30.15 in1021.0 mb 0.00 in0.0 mm 0.00 in0.0 mm 0.02 in0.5 mm
07:15 PM 56.8°F13.8°C 39.4°F4.1°C 52% 16.0 mph W25.7 kmh W 24.6 mph39.6 kmh 30.15 in1021.0 mb 0.00 in0.0 mm 0.00 in0.0 mm 0.02 in0.5 mm
07:20 PM 56.8°F13.8°C 39.4°F4.1°C 52% 15.2 mph W24.5 kmh W 26.4 mph42.5 kmh 30.15 in1021.0 mb 0.00 in0.0 mm 0.00 in0.0 mm 0.02 in0.5 mm
07:25 PM 56.8°F13.8°C 39.4°F4.1°C 52% 15.2 mph W24.5 kmh W 23.5 mph37.8 kmh 30.16 in1021.3 mb 0.00 in0.0 mm 0.00 in0.0 mm 0.02 in0.5 mm
07:30 PM 56.7°F13.7°C 39.3°F4.1°C 52% 15.2 mph W24.5 kmh W 23.0 mph37.0 kmh 30.16 in1021.3 mb 0.00 in0.0 mm 0.00 in0.0 mm 0.02 in0.5 mm
07:35 PM 56.7°F13.7°C 39.6°F4.2°C 53% 15.1 mph W24.3 kmh W 24.2 mph38.9 kmh 30.16 in1021.3 mb 0.00 in0.0 mm 0.00 in0.0 mm 0.02 in0.5 mm
07:40 PM 56.7°F13.7°C 39.3°F4.1°C 52% 14.8 mph W23.8 kmh W 25.3 mph40.7 kmh 30.16 in1021.3 mb 0.00 in0.0 mm 0.00 in0.0 mm 0.02 in0.5 mm
07:45 PM 56.6°F13.7°C 39.5°F4.2°C 53% 15.0 mph W24.1 kmh W 21.9 mph35.2 kmh 30.16 in1021.3 mb 0.00 in0.0 mm 0.00 in0.0 mm 0.02 in0.5 mm
07:50 PM 56.5°F13.6°C 39.2°F4.0°C 52% 15.7 mph W25.3 kmh W 26.8 mph43.1 kmh 30.16 in1021.3 mb 0.00 in0.0 mm 0.00 in0.0 mm 0.02 in0.5 mm
07:55 PM 56.5°F13.6°C 39.2°F4.0°C 52% 16.1 mph W25.9 kmh W 28.4 mph45.7 kmh 30.17 in1021.7 mb 0.00 in0.0 mm 0.00 in0.0 mm 0.02 in0.5 mm
08:00 PM 56.5°F13.6°C 39.6°F4.2°C 53% 17.4 mph W28.0 kmh W 29.1 mph46.8 kmh 30.17 in1021.7 mb 0.00 in0.0 mm 0.00 in0.0 mm 0.02 in0.5 mm
08:05 PM 56.5°F13.6°C 39.5°F4.2°C 53% 17.9 mph W28.8 kmh W 29.1 mph46.8 kmh 30.17 in1021.7 mb 0.00 in0.0 mm 0.00 in0.0 mm 0.02 in0.5 mm
08:10 PM 56.3°F13.5°C 39.4°F4.1°C 53% 19.0 mph W30.6 kmh W 28.6 mph46.0 kmh 30.17 in1021.7 mb 0.00 in0.0 mm 0.00 in0.0 mm 0.02 in0.5 mm
08:15 PM 56.3°F13.5°C 39.4°F4.1°C 53% 18.8 mph W30.3 kmh W 33.6 mph54.1 kmh 30.17 in1021.7 mb 0.00 in0.0 mm 0.00 in0.0 mm 0.02 in0.5 mm
08:20 PM 56.3°F13.5°C 39.4°F4.1°C 53% 18.1 mph W29.1 kmh W 28.0 mph45.1 kmh 30.17 in1021.7 mb 0.00 in0.0 mm 0.00 in0.0 mm 0.02 in0.5 mm
08:25 PM 56.2°F13.4°C 39.3°F4.1°C 53% 17.9 mph W28.8 kmh W 27.5 mph44.3 kmh 30.18 in1022.0 mb 0.00 in0.0 mm 0.00 in0.0 mm 0.02 in0.5 mm
08:30 PM 56.1°F13.4°C 39.2°F4.0°C 53% 17.4 mph W28.0 kmh W 24.6 mph39.6 kmh 30.18 in1022.0 mb 0.00 in0.0 mm 0.00 in0.0 mm 0.02 in0.5 mm
08:35 PM 56.0°F13.3°C 39.1°F3.9°C 53% 17.0 mph W27.4 kmh W 21.3 mph34.3 kmh 30.18 in1022.0 mb 0.00 in0.0 mm 0.00 in0.0 mm 0.02 in0.5 mm
08:40 PM 55.9°F13.3°C 39.5°F4.2°C 54% 15.7 mph W25.3 kmh W 23.0 mph37.0 kmh 30.18 in1022.0 mb 0.00 in0.0 mm 0.00 in0.0 mm 0.02 in0.5 mm
08:45 PM 55.8°F13.2°C 39.4°F4.1°C 54% 15.5 mph W24.9 kmh W 26.8 mph43.1 kmh 30.18 in1022.0 mb 0.00 in0.0 mm 0.00 in0.0 mm 0.02 in0.5 mm
08:50 PM 55.8°F13.2°C 39.4°F4.1°C 54% 15.2 mph W24.5 kmh W 26.8 mph43.1 kmh 30.18 in1022.0 mb 0.00 in0.0 mm 0.00 in0.0 mm 0.02 in0.5 mm
08:55 PM 55.8°F13.2°C 39.4°F4.1°C 54% 15.5 mph W24.9 kmh W 30.2 mph48.6 kmh 30.18 in1022.0 mb 0.00 in0.0 mm 0.00 in0.0 mm 0.02 in0.5 mm
09:00 PM 55.8°F13.2°C 39.4°F4.1°C 54% 16.3 mph W26.2 kmh W 29.5 mph47.5 kmh 30.18 in1022.0 mb 0.00 in0.0 mm 0.00 in0.0 mm 0.02 in0.5 mm
09:05 PM 55.8°F13.2°C 39.4°F4.1°C 54% 17.1 mph W27.5 kmh W 32.0 mph51.5 kmh 30.18 in1022.0 mb 0.00 in0.0 mm 0.00 in0.0 mm 0.02 in0.5 mm
09:10 PM 55.8°F13.2°C 39.5°F4.2°C 54% 19.0 mph W30.6 kmh W 27.3 mph43.9 kmh 30.18 in1022.0 mb 0.00 in0.0 mm 0.00 in0.0 mm 0.02 in0.5 mm
09:15 PM 55.8°F13.2°C 39.6°F4.2°C 54% 18.5 mph W29.8 kmh W 22.6 mph36.4 kmh 30.18 in1022.0 mb 0.00 in0.0 mm 0.00 in0.0 mm 0.02 in0.5 mm
09:20 PM 55.8°F13.2°C 39.8°F4.3°C 55% 17.0 mph W27.4 kmh W 28.0 mph45.1 kmh 30.18 in1022.0 mb 0.00 in0.0 mm 0.00 in0.0 mm 0.02 in0.5 mm
09:25 PM 55.8°F13.2°C 39.8°F4.3°C 55% 16.5 mph W26.6 kmh W 23.5 mph37.8 kmh 30.18 in1022.0 mb 0.00 in0.0 mm 0.00 in0.0 mm 0.02 in0.5 mm
09:30 PM 55.6°F13.1°C 39.7°F4.3°C 55% 15.2 mph W24.5 kmh W 22.6 mph36.4 kmh 30.18 in1022.0 mb 0.00 in0.0 mm 0.00 in0.0 mm 0.02 in0.5 mm
09:35 PM 55.5°F13.1°C 39.9°F4.4°C 56% 14.8 mph W23.8 kmh W 23.7 mph38.1 kmh 30.18 in1022.0 mb 0.00 in0.0 mm 0.00 in0.0 mm 0.02 in0.5 mm
09:40 PM 55.3°F12.9°C 39.8°F4.3°C 56% 13.6 mph W21.9 kmh W 19.7 mph31.7 kmh 30.19 in1022.4 mb 0.00 in0.0 mm 0.00 in0.0 mm 0.02 in0.5 mm
09:45 PM 55.2°F12.9°C 39.8°F4.3°C 56% 13.6 mph W21.9 kmh W 20.4 mph32.8 kmh 30.19 in1022.4 mb 0.00 in0.0 mm 0.00 in0.0 mm 0.02 in0.5 mm
09:50 PM 55.1°F12.8°C 39.7°F4.3°C 56% 13.4 mph W21.6 kmh W 23.0 mph37.0 kmh 30.19 in1022.4 mb 0.00 in0.0 mm 0.00 in0.0 mm 0.02 in0.5 mm
09:55 PM 55.2°F12.9°C 39.7°F4.3°C 56% 13.5 mph W21.7 kmh W 21.3 mph34.3 kmh 30.19 in1022.4 mb 0.00 in0.0 mm 0.00 in0.0 mm 0.02 in0.5 mm
10:00 PM 55.2°F12.9°C 39.8°F4.3°C 56% 13.6 mph W21.9 kmh W 20.4 mph32.8 kmh 30.19 in1022.4 mb 0.00 in0.0 mm 0.00 in0.0 mm 0.02 in0.5 mm
10:05 PM 55.2°F12.9°C 39.8°F4.3°C 56% 13.3 mph W21.4 kmh W 23.7 mph38.1 kmh 30.19 in1022.4 mb 0.00 in0.0 mm 0.00 in0.0 mm 0.02 in0.5 mm
10:10 PM 55.2°F12.9°C 39.8°F4.3°C 56% 12.5 mph W20.1 kmh W 23.0 mph37.0 kmh 30.19 in1022.4 mb 0.00 in0.0 mm 0.00 in0.0 mm 0.02 in0.5 mm
10:15 PM 55.2°F12.9°C 39.8°F4.3°C 56% 13.3 mph W21.4 kmh W 26.2 mph42.2 kmh 30.19 in1022.4 mb 0.00 in0.0 mm 0.00 in0.0 mm 0.02 in0.5 mm
10:20 PM 55.1°F12.8°C 39.7°F4.3°C 56% 15.2 mph W24.5 kmh W 26.4 mph42.5 kmh 30.19 in1022.4 mb 0.00 in0.0 mm 0.00 in0.0 mm 0.02 in0.5 mm
10:25 PM 55.0°F12.8°C 39.6°F4.2°C 56% 15.4 mph W24.8 kmh W 26.2 mph42.2 kmh 30.19 in1022.4 mb 0.00 in0.0 mm 0.00 in0.0 mm 0.02 in0.5 mm
10:30 PM 54.9°F12.7°C 39.5°F4.2°C 56% 15.9 mph W25.6 kmh W 25.3 mph40.7 kmh 30.19 in1022.4 mb 0.00 in0.0 mm 0.00 in0.0 mm 0.02 in0.5 mm
10:35 PM 54.8°F12.7°C 39.4°F4.1°C 56% 15.8 mph W25.4 kmh W 23.7 mph38.1 kmh 30.19 in1022.4 mb 0.00 in0.0 mm 0.00 in0.0 mm 0.02 in0.5 mm
10:40 PM 54.7°F12.6°C 39.6°F4.2°C 57% 15.7 mph W25.3 kmh W 24.6 mph39.6 kmh 30.19 in1022.4 mb 0.00 in0.0 mm 0.00 in0.0 mm 0.02 in0.5 mm
10:45 PM 54.4°F12.4°C 39.5°F4.2°C 57% 15.4 mph W24.8 kmh W 21.9 mph35.2 kmh 30.19 in1022.4 mb 0.00 in0.0 mm 0.00 in0.0 mm 0.02 in0.5 mm
10:50 PM 54.3°F12.4°C 39.4°F4.1°C 57% 14.8 mph W23.8 kmh W 21.9 mph35.2 kmh 30.19 in1022.4 mb 0.00 in0.0 mm 0.00 in0.0 mm 0.02 in0.5 mm
10:55 PM 54.1°F12.3°C 39.4°F4.1°C 57% 14.0 mph W22.5 kmh W 17.0 mph27.4 kmh 30.19 in1022.4 mb 0.00 in0.0 mm 0.00 in0.0 mm 0.02 in0.5 mm
11:00 PM 54.0°F12.2°C 39.5°F4.2°C 58% 11.9 mph WSW19.2 kmh WSW 13.6 mph21.9 kmh 30.19 in1022.4 mb 0.00 in0.0 mm 0.00 in0.0 mm 0.02 in0.5 mm
11:05 PM 53.9°F12.2°C 39.4°F4.1°C 58% 11.4 mph WSW18.3 kmh WSW 15.7 mph25.3 kmh 30.19 in1022.4 mb 0.00 in0.0 mm 0.00 in0.0 mm 0.02 in0.5 mm
11:10 PM 53.7°F12.1°C 39.3°F4.1°C 58% 10.1 mph WSW16.3 kmh WSW 14.5 mph23.3 kmh 30.20 in1022.7 mb 0.00 in0.0 mm 0.00 in0.0 mm 0.02 in0.5 mm
11:15 PM 53.5°F11.9°C 39.5°F4.2°C 59% 9.7 mph WSW15.6 kmh WSW 14.5 mph23.3 kmh 30.20 in1022.7 mb 0.00 in0.0 mm 0.00 in0.0 mm 0.02 in0.5 mm
11:20 PM 53.4°F11.9°C 39.4°F4.1°C 59% 8.7 mph WSW14.0 kmh WSW 15.2 mph24.5 kmh 30.20 in1022.7 mb 0.00 in0.0 mm 0.00 in0.0 mm 0.02 in0.5 mm
11:25 PM 53.2°F11.8°C 39.3°F4.1°C 59% 8.7 mph WSW14.0 kmh WSW 13.6 mph21.9 kmh 30.20 in1022.7 mb 0.00 in0.0 mm 0.00 in0.0 mm 0.02 in0.5 mm
11:30 PM 53.1°F11.7°C 39.5°F4.2°C 60% 8.7 mph WSW14.0 kmh WSW 13.0 mph20.9 kmh 30.21 in1023.0 mb 0.00 in0.0 mm 0.00 in0.0 mm 0.02 in0.5 mm
11:35 PM 52.9°F11.6°C 39.4°F4.1°C 60% 8.2 mph WSW13.2 kmh WSW 8.7 mph14.0 kmh 30.21 in1023.0 mb 0.00 in0.0 mm 0.00 in0.0 mm 0.02 in0.5 mm
11:40 PM 52.9°F11.6°C 39.2°F4.0°C 60% 6.9 mph W11.1 kmh W 12.3 mph19.8 kmh 30.21 in1023.0 mb 0.00 in0.0 mm 0.00 in0.0 mm 0.02 in0.5 mm
11:45 PM 52.9°F11.6°C 38.9°F3.8°C 59% 6.8 mph W10.9 kmh W 13.0 mph20.9 kmh 30.21 in1023.0 mb 0.00 in0.0 mm 0.00 in0.0 mm 0.02 in0.5 mm
11:50 PM 53.0°F11.7°C 38.7°F3.7°C 58% 6.3 mph W10.1 kmh W 19.2 mph30.9 kmh 30.21 in1023.0 mb 0.00 in0.0 mm 0.00 in0.0 mm 0.02 in0.5 mm
11:55 PM 53.4°F11.9°C 38.6°F3.7°C 57% 8.0 mph WSW12.9 kmh WSW 21.5 mph34.6 kmh 30.21 in1023.0 mb 0.00 in0.0 mm 0.00 in0.0 mm 0.02 in0.5 mm